Time;durP1;ratioP1;P1;durP2;ratioP2;P2;SDS_P1;SDS_P2;PMS_P1;PMS_P2;Temp;Humidity;BMP_temperature;BMP_pressure;BME280_temperature;BME280_humidity;BME280_pressure;Samples;Min_cycle;Max_cycle;Signal;HPM_P1;HPM_P2
2023/03/31 00:01:08;;;;;;;10.23;6.03;;;;;;;13.04;68.00;98778.66;4272055;33;34270;-85
2023/03/31 00:03:37;;;;;;;9.73;6.47;;;;;;;13.21;67.19;98772.50;4271374;33;33776;-87
2023/03/31 00:06:05;;;;;;;11.10;6.50;;;;;;;12.96;67.71;98770.00;4264949;33;34790;-86
2023/03/31 00:08:36;;;;;;;9.73;6.53;;;;;;;13.01;67.48;98764.78;4270222;33;33608;-86
2023/03/31 00:11:06;;;;;;;12.63;6.80;;;;;;;12.93;67.73;98770.03;4257974;33;33575;-85
2023/03/31 00:13:34;;;;;;;11.77;6.43;;;;;;;12.79;68.04;98769.19;4254646;33;33697;-87
2023/03/31 00:16:05;;;;;;;9.05;5.68;;;;;;;12.81;67.94;98765.72;4264235;33;34711;-86
2023/03/31 00:18:33;;;;;;;10.05;6.45;;;;;;;12.81;67.72;98767.47;4267087;33;34164;-85
2023/03/31 00:21:13;;;;;;;11.40;5.97;;;;;;;12.42;68.93;98766.63;4260507;33;34093;-86
2023/03/31 00:23:41;;;;;;;10.00;5.95;;;;;;;12.72;67.84;98760.53;4261941;33;34487;-86
2023/03/31 00:26:08;;;;;;;8.70;5.70;;;;;;;12.73;67.58;98761.38;4259219;33;33993;-87
2023/03/31 00:28:36;;;;;;;11.12;6.28;;;;;;;12.51;67.88;98761.44;4260309;33;34965;-87
2023/03/31 00:31:04;;;;;;;10.98;6.30;;;;;;;12.58;68.21;98757.97;4259550;33;34925;-85
2023/03/31 00:33:31;;;;;;;11.07;6.15;;;;;;;12.27;68.56;98759.72;4258928;33;34372;-88
2023/03/31 00:36:00;;;;;;;9.13;5.70;;;;;;;12.31;69.21;98757.97;4261003;33;33706;-89
2023/03/31 00:38:29;;;;;;;9.50;5.00;;;;;;;12.48;68.44;98765.78;4258860;33;34971;-87
2023/03/31 00:40:57;;;;;;;11.55;7.05;;;;;;;12.51;67.30;98751.03;4262738;33;34079;-88
2023/03/31 00:43:36;;;;;;;8.65;5.18;;;;;;;12.46;67.34;98750.16;4259272;33;33382;-87
2023/03/31 00:46:28;;;;;;;12.07;5.15;;;;;;;12.68;66.21;98748.41;4247674;33;33733;-86
2023/03/31 00:48:57;;;;;;;8.75;4.60;;;;;;;12.59;66.20;98753.63;4260888;33;34882;-87
2023/03/31 00:51:31;;;;;;;7.57;4.35;;;;;;;12.64;65.52;98750.13;4247333;33;34060;-87
2023/03/31 00:54:04;;;;;;;7.53;4.68;;;;;;;12.44;65.69;98744.13;4260766;33;33400;-88
2023/03/31 00:56:36;;;;;;;9.85;4.68;;;;;;;12.36;65.54;98745.88;4262374;33;33771;-88
2023/03/31 00:59:06;;;;;;;8.27;4.30;;;;;;;12.48;64.90;98747.59;4269184;33;34195;-85
2023/03/31 01:01:35;;;;;;;7.47;4.80;;;;;;;12.24;65.32;98743.28;4247617;33;35137;-87
2023/03/31 01:04:03;;;;;;;7.10;4.32;;;;;;;12.28;64.98;98748.47;4261742;33;34441;-87
2023/03/31 01:06:31;;;;;;;8.48;4.50;;;;;;;11.97;65.40;98744.13;4247381;33;33740;-87
2023/03/31 01:09:04;;;;;;;8.45;4.55;;;;;;;12.03;65.22;98737.22;4259963;33;33875;-86
2023/03/31 01:11:33;;;;;;;9.85;5.45;;;;;;;11.74;66.15;98742.34;4264054;33;34266;-87
2023/03/31 01:14:03;;;;;;;8.10;4.90;;;;;;;11.57;66.97;98723.31;4248922;33;34458;-89
2023/03/31 01:16:32;;;;;;;8.48;5.03;;;;;;;11.32;67.36;98720.63;4272322;33;33896;-87
2023/03/31 01:19:02;;;;;;;12.10;6.30;;;;;;;11.66;66.77;98725.91;4258973;33;35045;-87
2023/03/31 01:21:36;;;;;;;10.23;6.30;;;;;;;10.64;73.13;98740.25;4261728;33;32744;-88
2023/03/31 01:24:19;;;;;;;8.02;5.53;;;;;;;11.11;71.81;98736.16;4259998;33;33342;-89
2023/03/31 01:27:02;;;;;;;9.65;5.60;;;;;;;11.30;69.54;98731.91;4259180;33;33558;-88
2023/03/31 01:30:04;;;;;;;9.40;5.18;;;;;;;11.60;67.70;98737.16;4260297;33;34166;-88
2023/03/31 01:32:54;;;;;;;9.95;5.20;;;;;;;11.54;67.60;98744.06;4259139;33;35148;-89
2023/03/31 01:35:50;;;;;;;9.70;4.82;;;;;;;11.60;66.80;98736.28;4269409;33;33209;-89
2023/03/31 01:38:51;;;;;;;8.40;4.72;;;;;;;11.54;66.83;98736.28;4266872;33;34223;-87
2023/03/31 01:41:39;;;;;;;7.75;5.10;;;;;;;11.59;66.36;98725.03;4269482;33;34227;-87
2023/03/31 01:44:45;;;;;;;8.88;4.80;;;;;;;11.56;66.29;98729.38;4257358;33;34291;-88
2023/03/31 01:47:39;;;;;;;10.32;4.57;;;;;;;11.60;65.91;98731.97;4246349;33;34550;-87
2023/03/31 01:50:19;;;;;;;6.53;4.15;;;;;;;11.23;66.49;98746.56;4246554;33;34592;-87
2023/03/31 01:52:55;;;;;;;10.80;5.40;;;;;;;11.39;65.86;98737.97;4259458;33;33781;-89
2023/03/31 01:55:29;;;;;;;8.95;4.93;;;;;;;11.02;67.22;98734.38;4270855;33;34313;-87
2023/03/31 01:58:11;;;;;;;12.32;4.50;;;;;;;10.95;67.43;98746.47;4270463;33;33788;-87
2023/03/31 02:00:44;;;;;;;8.00;4.43;;;;;;;11.13;66.66;98734.41;4273129;33;34031;-88
2023/03/31 02:03:18;;;;;;;8.02;4.55;;;;;;;11.22;66.36;98736.19;4256320;33;34145;-87
2023/03/31 02:05:55;;;;;;;6.90;3.90;;;;;;;11.08;66.34;98736.13;4258507;33;35079;-88
2023/03/31 02:08:30;;;;;;;8.13;4.50;;;;;;;11.22;65.99;98733.59;4247025;33;34410;-88
2023/03/31 02:10:59;;;;;;;9.30;3.78;;;;;;;11.33;65.31;98735.37;4255781;33;33983;-88
2023/03/31 02:13:28;;;;;;;10.40;4.22;;;;;;;11.33;65.02;98737.09;4261016;33;33998;-89
2023/03/31 02:16:00;;;;;;;5.80;3.37;;;;;;;11.17;65.26;98737.06;4260803;33;34259;-87
2023/03/31 02:18:32;;;;;;;6.20;3.40;;;;;;;11.32;64.47;98732.75;4267053;33;34366;-87
2023/03/31 02:21:00;;;;;;;6.00;3.47;;;;;;;11.28;64.46;98729.28;4246865;33;34037;-89
2023/03/31 02:23:30;;;;;;;10.45;3.78;;;;;;;11.27;64.29;98729.28;4270079;33;35124;-87
2023/03/31 02:26:09;;;;;;;6.80;4.05;;;;;;;11.24;64.25;98724.09;4258848;33;35024;-88
2023/03/31 02:28:37;;;;;;;6.22;3.17;;;;;;;11.11;64.30;98720.59;4247881;33;34345;-87
2023/03/31 02:31:43;;;;;;;6.47;3.60;;;;;;;11.17;64.14;98725.78;4247436;33;33984;-87
2023/03/31 02:34:11;;;;;;;5.87;3.30;;;;;;;11.18;64.10;98717.16;4261050;33;34126;-87
2023/03/31 02:36:40;;;;;;;7.43;3.33;;;;;;;11.18;63.89;98714.56;4260273;33;32889;-89
2023/03/31 02:39:11;;;;;;;6.18;2.97;;;;;;;11.24;63.47;98711.97;4247289;33;34466;-87
2023/03/31 02:41:39;;;;;;;9.85;3.67;;;;;;;11.17;63.74;98705.91;4258792;33;33609;-86
2023/03/31 02:44:06;;;;;;;7.78;4.03;;;;;;;10.96;63.72;98713.63;4259768;33;32600;-87
2023/03/31 02:46:34;;;;;;;5.97;3.00;;;;;;;11.01;63.74;98713.63;4246528;33;33882;-86
2023/03/31 02:49:04;;;;;;;6.87;3.60;;;;;;;11.14;63.28;98724.06;4247962;33;33698;-87
2023/03/31 02:52:09;;;;;;;5.55;3.03;;;;;;;11.10;63.25;98721.44;4266691;33;33602;-88
2023/03/31 02:55:02;;;;;;;6.37;3.47;;;;;;;11.09;62.96;98712.78;4260144;33;34268;-88
2023/03/31 02:57:36;;;;;;;6.72;3.45;;;;;;;11.00;63.11;98712.75;4258371;33;34970;-88
2023/03/31 03:00:34;;;;;;;9.30;4.05;;;;;;;10.99;62.99;98711.03;4266118;33;33510;-86
2023/03/31 03:03:05;;;;;;;8.40;3.53;;;;;;;10.88;63.26;98713.59;4258080;33;33790;-87
2023/03/31 03:05:49;;;;;;;6.37;3.78;;;;;;;10.89;62.98;98727.41;4264676;33;34331;-87
2023/03/31 03:08:33;;;;;;;6.20;3.62;;;;;;;10.74;63.28;98719.56;4260292;33;34044;-88
2023/03/31 03:11:16;;;;;;;6.30;4.00;;;;;;;10.85;62.97;98728.25;4258682;33;33136;-87
2023/03/31 03:13:51;;;;;;;9.80;4.18;;;;;;;10.78;62.88;98718.72;4270847;33;33618;-86
2023/03/31 03:16:28;;;;;;;7.55;5.25;;;;;;;10.68;62.92;98716.09;4252360;33;33923;-87
2023/03/31 03:18:57;;;;;;;6.80;4.65;;;;;;;10.63;63.07;98712.59;4256473;33;34324;-87
2023/03/31 03:21:25;;;;;;;8.98;4.97;;;;;;;10.61;63.07;98708.28;4259957;33;34283;-88
2023/03/31 03:23:53;;;;;;;7.97;4.78;;;;;;;10.73;62.81;98713.53;4257545;33;33982;-86
2023/03/31 03:26:22;;;;;;;7.15;4.97;;;;;;;10.66;62.86;98717.81;4248635;33;34828;-87
2023/03/31 03:28:50;;;;;;;9.60;5.40;;;;;;;10.49;63.37;98709.06;4266830;33;34953;-87
2023/03/31 03:31:18;;;;;;;8.07;5.25;;;;;;;10.74;62.79;98711.78;4268251;33;34477;-88
2023/03/31 03:33:46;;;;;;;8.95;5.12;;;;;;;10.55;63.02;98719.47;4262563;33;33900;-88
2023/03/31 03:36:13;;;;;;;9.68;5.93;;;;;;;10.49;63.32;98706.47;4262471;33;34205;-87
2023/03/31 03:38:41;;;;;;;7.97;5.65;;;;;;;10.64;62.88;98705.69;4257573;33;34921;-89
2023/03/31 03:41:09;;;;;;;10.07;5.85;;;;;;;10.65;62.98;98697.94;4259838;33;33801;-90
2023/03/31 03:43:36;;;;;;;9.38;5.87;;;;;;;10.56;62.91;98695.28;4263069;33;33852;-89
2023/03/31 03:46:04;;;;;;;11.18;6.07;;;;;;;10.45;63.24;98691.75;4264430;33;34066;-89
2023/03/31 03:48:32;;;;;;;8.95;5.30;;;;;;;10.60;62.96;98694.44;4264702;33;33672;-89
2023/03/31 03:51:00;;;;;;;10.75;6.45;;;;;;;10.60;62.73;98702.19;4262696;33;33261;-88
2023/03/31 03:53:27;;;;;;;11.55;5.82;;;;;;;10.50;63.03;98703.03;4268005;33;34719;-89
2023/03/31 03:55:55;;;;;;;8.07;5.62;;;;;;;10.40;63.35;98709.88;4262662;33;34055;-89
2023/03/31 03:58:23;;;;;;;7.15;5.25;;;;;;;10.28;63.69;98709.81;4263682;33;32615;-89
2023/03/31 04:00:50;;;;;;;11.77;5.68;;;;;;;10.45;63.48;98709.91;4265514;33;34616;-88
2023/03/31 04:03:18;;;;;;;8.68;5.07;;;;;;;10.37;63.50;98703.81;4273082;33;33954;-87
2023/03/31 04:05:48;;;;;;;7.75;4.45;;;;;;;10.22;64.02;98700.22;4273688;33;35003;-85
2023/03/31 04:08:17;;;;;;;6.68;4.30;;;;;;;10.29;63.62;98695.13;4262166;33;34715;-87
2023/03/31 04:10:47;;;;;;;9.02;4.70;;;;;;;10.30;63.15;98691.66;4260772;33;33382;-86
2023/03/31 04:13:16;;;;;;;6.82;4.10;;;;;;;10.35;63.06;98674.44;4260292;33;33633;-85
2023/03/31 04:15:44;;;;;;;7.95;4.62;;;;;;;10.23;63.33;98670.88;4266299;33;33930;-87
2023/03/31 04:18:24;;;;;;;9.20;5.03;;;;;;;10.22;63.44;98669.13;4262412;33;35533;-87
2023/03/31 04:21:04;;;;;;;10.80;5.20;;;;;;;9.99;64.02;98678.47;4260433;33;33345;-87
2023/03/31 04:23:33;;;;;;;9.45;5.62;;;;;;;9.93;64.36;98679.31;4265809;33;33920;-85
2023/03/31 04:26:02;;;;;;;7.57;5.18;;;;;;;10.16;63.77;98676.88;4269903;33;34578;-86
2023/03/31 04:28:33;;;;;;;8.55;6.00;;;;;;;10.20;63.44;98676.03;4259853;33;34276;-87
2023/03/31 04:31:05;;;;;;;11.07;6.15;;;;;;;10.13;63.81;98679.44;4263821;33;34673;-86
2023/03/31 04:33:38;;;;;;;11.32;5.95;;;;;;;10.13;64.26;98679.44;4265187;33;35053;-87
2023/03/31 04:36:16;;;;;;;10.82;5.72;;;;;;;10.18;64.21;98693.28;4264361;33;34301;-86
2023/03/31 04:39:01;;;;;;;7.82;5.50;;;;;;;10.31;64.11;98683.06;4265633;33;34252;-86
2023/03/31 04:41:29;;;;;;;7.90;5.50;;;;;;;10.17;64.32;98678.59;4260489;33;32960;-86
2023/03/31 04:43:56;;;;;;;9.00;5.00;;;;;;;10.42;63.54;98677.06;4259672;33;34009;-85
2023/03/31 04:46:24;;;;;;;7.95;5.30;;;;;;;10.29;63.71;98683.03;4263396;33;33809;-85
2023/03/31 04:48:52;;;;;;;8.55;4.65;;;;;;;10.23;64.08;98675.22;4264083;33;34739;-85
2023/03/31 04:51:19;;;;;;;8.85;4.95;;;;;;;10.35;63.97;98670.13;4262742;33;34448;-86
2023/03/31 04:53:48;;;;;;;11.60;6.05;;;;;;;10.55;63.44;98670.22;4267148;33;33926;-85
2023/03/31 04:56:15;;;;;;;15.93;5.40;;;;;;;10.85;63.80;98666.03;4268473;33;34139;-87
2023/03/31 04:58:43;;;;;;;9.77;5.37;;;;;;;11.20;62.72;98660.94;4269618;33;34737;-89
2023/03/31 05:01:12;;;;;;;9.32;4.60;;;;;;;11.24;62.59;98659.22;4259535;33;33679;-88
2023/03/31 05:03:41;;;;;;;7.43;4.97;;;;;;;11.61;61.66;98666.19;4260358;33;34513;-86
2023/03/31 05:06:11;;;;;;;8.52;5.12;;;;;;;12.00;60.77;98667.06;4269552;33;34159;-86
2023/03/31 05:08:38;;;;;;;7.28;4.72;;;;;;;12.21;59.31;98657.53;4268243;33;34870;-86
2023/03/31 05:11:06;;;;;;;9.25;5.20;;;;;;;12.38;59.76;98656.59;4269729;33;34415;-86
2023/03/31 05:13:33;;;;;;;12.15;5.37;;;;;;;12.44;59.38;98653.13;4264587;33;34090;-87
2023/03/31 05:16:13;;;;;;;9.90;4.72;;;;;;;12.78;59.14;98640.00;4264969;33;34567;-87
2023/03/31 05:18:42;;;;;;;7.97;4.40;;;;;;;13.08;57.87;98637.25;4273330;33;34058;-89
2023/03/31 05:21:12;;;;;;;9.13;4.75;;;;;;;13.08;57.39;98639.84;4262968;33;33454;-87
2023/03/31 05:23:40;;;;;;;8.13;4.20;;;;;;;13.41;57.33;98635.34;4259919;33;33917;-86
2023/03/31 05:26:08;;;;;;;8.85;5.18;;;;;;;13.12;57.69;98638.94;4259430;33;34099;-88
2023/03/31 05:28:35;;;;;;;8.15;4.87;;;;;;;13.26;58.01;98640.62;4261891;33;34970;-86
2023/03/31 05:31:04;;;;;;;12.73;5.35;;;;;;;13.12;58.84;98636.34;4263963;33;33751;-86
2023/03/31 05:33:32;;;;;;;9.48;5.07;;;;;;;13.47;58.52;98631.81;4255469;33;33649;-85
2023/03/31 05:36:00;;;;;;;9.27;5.43;;;;;;;13.63;58.91;98634.25;4273174;33;33968;-85
2023/03/31 05:38:30;;;;;;;8.98;5.03;;;;;;;13.67;58.79;98644.66;4271935;33;34173;-85
2023/03/31 05:40:57;;;;;;;9.45;5.57;;;;;;;13.66;58.17;98648.16;4267489;33;33481;-86
2023/03/31 05:43:25;;;;;;;9.38;4.93;;;;;;;13.50;59.08;98645.66;4259064;33;34833;-86
2023/03/31 05:45:52;;;;;;;10.02;5.60;;;;;;;13.24;61.92;98645.00;4258904;33;34256;-85
2023/03/31 05:48:20;;;;;;;10.35;5.25;;;;;;;13.65;61.40;98647.28;4260304;33;34263;-87
2023/03/31 05:50:47;;;;;;;9.73;5.75;;;;;;;13.72;61.57;98637.69;4269784;33;34320;-87
2023/03/31 05:53:15;;;;;;;8.25;5.55;;;;;;;13.49;61.71;98641.34;4273056;33;34409;-85
2023/03/31 05:55:43;;;;;;;10.90;6.03;;;;;;;13.71;61.08;98646.38;4265796;33;33767;-88
2023/03/31 05:58:10;;;;;;;9.75;5.53;;;;;;;13.73;60.96;98644.63;4259018;33;34074;-88
2023/03/31 06:00:38;;;;;;;10.07;5.72;;;;;;;13.48;62.60;98637.00;4265966;33;34523;-88
2023/03/31 06:03:06;;;;;;;11.50;7.28;;;;;;;13.62;62.29;98634.28;4271357;33;33682;-88
2023/03/31 06:05:34;;;;;;;13.55;5.78;;;;;;;13.56;63.41;98637.81;4273184;33;33807;-90
2023/03/31 06:08:02;;;;;;;10.77;6.45;;;;;;;13.60;62.15;98634.31;4273235;33;33672;-88
2023/03/31 06:10:30;;;;;;;20.30;6.65;;;;;;;13.72;62.91;98632.50;4273056;33;33507;-88
2023/03/31 06:12:57;;;;;;;18.85;6.30;;;;;;;13.66;63.73;98640.34;4272777;33;33841;-88
2023/03/31 06:15:25;;;;;;;15.15;6.82;;;;;;;13.60;64.38;98634.31;4272977;33;33924;-88
2023/03/31 06:17:52;;;;;;;9.80;6.32;;;;;;;13.09;65.57;98631.16;4273264;33;34915;-88
2023/03/31 06:20:20;;;;;;;11.63;7.30;;;;;;;13.15;64.40;98631.13;4273114;33;34165;-88
2023/03/31 06:22:55;;;;;;;9.55;6.65;;;;;;;13.31;63.97;98631.06;4272901;33;33855;-88
2023/03/31 06:25:22;;;;;;;9.65;6.28;;;;;;;12.72;65.01;98625.28;4273169;33;34300;-88
2023/03/31 06:27:49;;;;;;;13.57;5.93;;;;;;;13.01;64.16;98627.72;4272887;33;34239;-90
2023/03/31 06:30:17;;;;;;;9.98;6.40;;;;;;;12.88;64.85;98621.75;4272620;33;34502;-88
2023/03/31 06:32:45;;;;;;;10.40;6.18;;;;;;;12.93;64.79;98620.84;4273278;33;33503;-88
2023/03/31 06:35:12;;;;;;;9.45;5.50;;;;;;;13.11;64.49;98619.00;4273051;33;34751;-92
2023/03/31 06:37:40;;;;;;;11.35;6.30;;;;;;;13.35;63.59;98617.16;4272833;33;34925;-89
2023/03/31 06:40:08;;;;;;;8.82;5.40;;;;;;;13.31;64.78;98610.22;4273043;33;33753;-90
2023/03/31 06:42:35;;;;;;;10.80;5.90;;;;;;;13.38;63.21;98619.72;4273107;33;34100;-88
2023/03/31 06:45:03;;;;;;;8.75;5.18;;;;;;;13.68;62.36;98626.44;4272611;33;35086;-89
2023/03/31 06:47:31;;;;;;;9.50;5.45;;;;;;;13.51;62.19;98634.38;4272946;33;34921;-88
2023/03/31 06:49:58;;;;;;;10.45;4.70;;;;;;;13.58;61.68;98641.25;4273005;33;34086;-92
2023/03/31 06:52:26;;;;;;;10.48;5.22;;;;;;;13.54;62.01;98634.34;4272955;33;33899;-88
2023/03/31 06:54:53;;;;;;;8.38;4.07;;;;;;;13.52;61.98;98640.44;4273013;33;34030;-89
2023/03/31 06:57:20;;;;;;;9.98;5.43;;;;;;;13.84;61.23;98637.59;4272932;33;34324;-89
2023/03/31 06:59:48;;;;;;;13.55;6.37;;;;;;;13.61;62.70;98641.25;4272690;33;33844;-88
2023/03/31 07:02:16;;;;;;;12.25;7.15;;;;;;;13.95;63.62;98634.88;4272730;33;32688;-91
2023/03/31 07:04:43;;;;;;;9.07;5.35;;;;;;;13.76;64.84;98639.41;4272780;33;34935;-88
2023/03/31 07:07:11;;;;;;;8.57;5.10;;;;;;;13.99;63.65;98637.44;4272863;33;34881;-89
2023/03/31 07:09:38;;;;;;;11.12;5.07;;;;;;;13.79;63.06;98634.16;4272778;33;34692;-88
2023/03/31 07:12:06;;;;;;;10.05;4.62;;;;;;;14.00;62.14;98626.12;4272643;33;33700;-91
2023/03/31 07:14:33;;;;;;;7.85;4.22;;;;;;;14.11;61.42;98626.91;4273062;33;34583;-88
2023/03/31 07:17:01;;;;;;;8.10;4.57;;;;;;;13.39;62.31;98629.25;4272891;33;33399;-92
2023/03/31 07:19:29;;;;;;;9.27;4.25;;;;;;;13.38;62.71;98632.75;4272866;33;34311;-89
2023/03/31 07:21:56;;;;;;;7.60;4.12;;;;;;;13.95;61.60;98629.69;4272554;33;33746;-88
2023/03/31 07:24:24;;;;;;;8.70;4.12;;;;;;;13.89;61.41;98622.75;4271418;33;33597;-88
2023/03/31 07:26:51;;;;;;;8.65;3.87;;;;;;;14.43;59.10;98614.37;4272387;33;34905;-89
2023/03/31 07:29:19;;;;;;;7.68;4.10;;;;;;;14.47;59.70;98613.47;4272513;33;34211;-88
2023/03/31 07:31:47;;;;;;;6.55;4.20;;;;;;;14.50;59.88;98605.63;4258159;33;34736;-88
2023/03/31 07:34:15;;;;;;;12.30;6.05;;;;;;;14.70;60.03;98601.06;4258487;33;34216;-88
2023/03/31 07:36:42;;;;;;;11.73;5.50;;;;;;;14.63;61.18;98599.41;4258440;33;34321;-88
2023/03/31 07:39:10;;;;;;;9.48;5.65;;;;;;;14.59;61.10;98588.16;4256801;33;33692;-87
2023/03/31 07:41:37;;;;;;;9.63;5.50;;;;;;;14.15;62.17;98591.22;4257853;33;33604;-88
2023/03/31 07:44:05;;;;;;;9.77;4.87;;;;;;;14.08;63.29;98600.84;4256797;33;35069;-88
2023/03/31 07:46:33;;;;;;;9.35;5.15;;;;;;;14.36;62.09;98596.22;4252954;33;172731;-87
2023/03/31 07:49:02;;;;;;;14.23;5.35;;;;;;;14.42;61.68;98587.44;4257904;33;34651;-88
2023/03/31 07:51:29;;;;;;;11.05;5.87;;;;;;;14.67;60.80;98595.88;4258231;33;34094;-87
2023/03/31 07:53:57;;;;;;;10.30;5.47;;;;;;;14.72;62.70;98601.88;4258163;33;34151;-88
2023/03/31 07:56:24;;;;;;;11.40;5.57;;;;;;;15.04;60.86;98591.03;4257618;33;34068;-88
2023/03/31 07:58:52;;;;;;;10.10;5.62;;;;;;;15.33;59.62;98590.56;4257906;33;33794;-87
2023/03/31 08:01:24;;;;;;;10.77;5.32;;;;;;;15.27;58.79;98582.84;4257904;33;34371;-91
2023/03/31 08:03:54;;;;;;;10.52;5.57;;;;;;;15.73;58.28;98581.25;4245020;33;34924;-87
2023/03/31 08:06:24;;;;;;;8.75;5.60;;;;;;;15.88;58.80;98582.75;4258097;33;33800;-88
2023/03/31 08:08:51;;;;;;;8.43;5.28;;;;;;;16.10;57.75;98570.09;4257755;33;34197;-88
2023/03/31 08:11:20;;;;;;;7.72;5.40;;;;;;;16.13;56.72;98564.81;4257492;33;34863;-88
2023/03/31 08:13:47;;;;;;;10.73;5.10;;;;;;;15.98;56.12;98558.97;4257852;33;35129;-88
2023/03/31 08:16:15;;;;;;;10.02;4.78;;;;;;;15.77;57.12;98567.25;4257767;33;35045;-87
2023/03/31 08:18:42;;;;;;;9.13;4.35;;;;;;;15.69;57.96;98561.28;4256555;33;33511;-89
2023/03/31 08:21:10;;;;;;;8.98;5.53;;;;;;;16.10;56.25;98559.66;4257593;33;33960;-88
2023/03/31 08:23:37;;;;;;;8.82;5.05;;;;;;;15.85;57.00;98554.91;4258317;33;34667;-87
2023/03/31 08:26:14;;;;;;;8.18;5.07;;;;;;;16.02;57.18;98552.84;4257281;33;34328;-87
2023/03/31 08:28:45;;;;;;;7.53;4.95;;;;;;;15.99;57.77;98550.28;4257475;33;34392;-88
2023/03/31 08:31:15;;;;;;;6.95;4.45;;;;;;;16.56;57.15;98540.44;4268348;33;34331;-87
2023/03/31 08:33:43;;;;;;;7.50;4.07;;;;;;;16.26;57.50;98537.56;4271588;33;33660;-87
2023/03/31 08:36:10;;;;;;;6.85;3.83;;;;;;;16.47;56.60;98526.62;4272788;33;34205;-88
2023/03/31 08:38:40;;;;;;;8.63;4.22;;;;;;;16.05;58.31;98529.22;4273683;33;33706;-88
2023/03/31 08:41:44;;;;;;;8.90;3.87;;;;;;;16.21;56.63;98516.72;4273622;33;33607;-88
2023/03/31 08:44:31;;;;;;;7.53;3.75;;;;;;;16.56;56.04;98515.13;4260685;33;34251;-88
2023/03/31 08:47:00;;;;;;;10.20;4.07;;;;;;;16.83;55.66;98511.06;4260901;33;33639;-87
2023/03/31 08:49:36;;;;;;;9.05;4.10;;;;;;;16.98;55.19;98500.22;4273673;33;33755;-88
2023/03/31 08:52:09;;;;;;;8.10;3.58;;;;;;;17.18;55.86;98493.63;4272386;33;34208;-88
2023/03/31 08:54:42;;;;;;;6.57;3.72;;;;;;;17.30;53.40;98490.72;4272069;33;34321;-88
2023/03/31 08:57:25;;;;;;;7.03;3.60;;;;;;;16.91;54.11;98482.94;4260616;33;33732;-90
2023/03/31 08:59:57;;;;;;;8.07;3.35;;;;;;;17.08;52.81;98485.13;4260818;33;33505;-87
2023/03/31 09:02:36;;;;;;;5.68;2.97;;;;;;;16.98;53.39;98484.50;4273992;33;34756;-88
2023/03/31 09:05:26;;;;;;;10.63;4.22;;;;;;;17.16;53.48;98482.31;4272213;33;34758;-91
2023/03/31 09:07:59;;;;;;;10.10;3.95;;;;;;;17.35;55.29;98477.47;4260402;33;34276;-88
2023/03/31 09:10:53;;;;;;;7.95;4.00;;;;;;;17.29;55.45;98464.56;4273622;33;34347;-88
2023/03/31 09:13:46;;;;;;;7.55;3.72;;;;;;;17.26;56.49;98468.97;4273266;33;33834;-88
2023/03/31 09:16:16;;;;;;;6.97;3.58;;;;;;;17.40;55.87;98467.75;4260581;33;33921;-88
2023/03/31 09:18:47;;;;;;;5.72;2.95;;;;;;;17.47;54.53;98467.56;4260461;33;34267;-88
2023/03/31 09:21:17;;;;;;;9.65;3.50;;;;;;;17.16;55.57;98461.37;4273539;33;33707;-87
2023/03/31 09:23:56;;;;;;;9.80;3.50;;;;;;;17.05;53.81;98466.00;4273175;33;34964;-88
2023/03/31 09:26:54;;;;;;;7.78;3.65;;;;;;;17.13;55.15;98458.84;4272307;33;33292;-88
2023/03/31 09:29:46;;;;;;;6.65;3.37;;;;;;;17.46;55.58;98455.38;4257031;33;35042;-88
2023/03/31 09:32:18;;;;;;;8.10;2.90;;;;;;;17.27;55.42;98448.88;4273230;33;33404;-86
2023/03/31 09:34:46;;;;;;;5.20;3.00;;;;;;;17.40;52.35;98447.66;4260322;33;33596;-87
2023/03/31 09:37:15;;;;;;;7.62;3.78;;;;;;;17.35;52.20;98432.94;4260265;33;35099;-88
2023/03/31 09:39:42;;;;;;;9.30;3.12;;;;;;;17.20;52.09;98427.22;4273192;33;34993;-87
2023/03/31 09:42:11;;;;;;;7.32;3.70;;;;;;;17.16;51.64;98432.56;4273486;33;33698;-87
2023/03/31 09:44:42;;;;;;;7.07;3.78;;;;;;;17.52;52.85;98422.87;4272185;33;34867;-88
2023/03/31 09:47:26;;;;;;;7.55;3.78;;;;;;;17.50;51.33;98429.91;4272811;33;34312;-90
2023/03/31 09:49:54;;;;;;;5.95;3.20;;;;;;;17.36;52.50;98421.59;4272126;33;35013;-88
2023/03/31 09:52:30;;;;;;;6.65;3.30;;;;;;;17.45;52.43;98426.56;4272917;33;33727;-87
2023/03/31 09:55:05;;;;;;;7.10;3.92;;;;;;;17.50;53.90;98411.56;4273145;33;34124;-88
2023/03/31 09:57:38;;;;;;;6.43;3.65;;;;;;;17.74;53.10;98412.66;4260420;33;35044;-88
2023/03/31 10:00:17;;;;;;;7.40;4.10;;;;;;;17.83;53.00;98406.31;4260807;33;34048;-87
2023/03/31 10:02:53;;;;;;;6.68;3.17;;;;;;;18.10;51.20;98404.66;4260186;33;34470;-87
2023/03/31 10:05:29;;;;;;;6.20;3.15;;;;;;;18.20;51.49;98400.87;4273199;33;33528;-87
2023/03/31 10:08:15;;;;;;;;;;;;;;;18.05;52.55;98396.09;4273192;33;35023;-87
2023/03/31 10:10:48;;;;;;;7.82;3.58;;;;;;;18.18;51.81;98386.91;4273117;33;35272;-87
2023/03/31 10:13:38;;;;;;;5.00;2.62;;;;;;;18.13;50.55;98388.84;4272903;33;34468;-90
2023/03/31 10:16:11;;;;;;;5.60;2.53;;;;;;;18.12;49.08;98382.72;4273204;33;34584;-87
2023/03/31 10:18:41;;;;;;;4.90;2.53;;;;;;;17.74;49.77;98376.81;4273027;33;34429;-88
2023/03/31 10:21:36;;;;;;;6.20;2.70;;;;;;;18.03;48.80;98363.78;4272867;33;34774;-80
2023/03/31 10:24:09;;;;;;;5.18;3.17;;;;;;;17.93;49.13;98365.84;4258441;33;34379;-87
2023/03/31 10:26:37;;;;;;;7.50;3.42;;;;;;;17.90;50.37;98365.91;4273058;33;33837;-88
2023/03/31 10:29:12;;;;;;;7.05;3.67;;;;;;;18.02;51.87;98359.44;4259812;33;34267;-87
2023/03/31 10:31:39;;;;;;;10.02;4.18;;;;;;;17.85;52.11;98358.19;4272942;33;33802;-87
2023/03/31 10:34:14;;;;;;;6.68;3.72;;;;;;;17.98;52.14;98359.53;4273023;33;33467;-87
2023/03/31 10:36:46;;;;;;;9.02;3.87;;;;;;;18.09;51.73;98355.72;4260332;33;34047;-87
2023/03/31 10:39:15;;;;;;;8.75;4.57;;;;;;;17.99;52.23;98348.16;4272977;33;35026;-87
2023/03/31 10:41:51;;;;;;;7.20;3.12;;;;;;;18.10;52.12;98349.56;4259903;33;34014;-87
2023/03/31 10:44:51;;;;;;;;;;;;;;;17.86;50.47;98343.31;4273251;33;33854;-87
2023/03/31 10:47:20;;;;;;;6.43;3.35;;;;;;;17.78;49.88;98345.31;4248779;33;34677;-87
2023/03/31 10:49:54;;;;;;;6.22;3.03;;;;;;;17.66;50.90;98336.88;4272108;33;33847;-87
2023/03/31 10:52:26;;;;;;;4.20;1.87;;;;;;;18.45;49.51;98338.84;4272766;33;34242;-90
2023/03/31 10:54:57;;;;;;;4.93;2.30;;;;;;;18.29;46.18;98331.50;4260069;33;33587;-88
2023/03/31 10:57:27;;;;;;;8.48;2.67;;;;;;;18.59;46.50;98329.66;4271384;33;33755;-88
2023/03/31 11:00:41;;;;;;;4.90;2.10;;;;;;;18.54;46.93;98321.94;4272577;33;34682;-88
2023/03/31 11:03:28;;;;;;;23.15;2.90;;;;;;;18.98;46.46;98311.75;4267425;33;34072;-88
2023/03/31 11:06:02;;;;;;;5.85;2.37;;;;;;;18.95;43.58;98312.69;4259682;33;33895;-88
2023/03/31 11:08:35;;;;;;;5.97;2.75;;;;;;;19.08;44.53;98301.75;4272716;33;34497;-87
2023/03/31 11:11:22;;;;;;;7.90;2.80;;;;;;;19.30;45.75;98315.84;4272718;33;34849;-88
2023/03/31 11:14:07;;;;;;;6.18;2.58;;;;;;;19.33;46.08;98318.34;4272678;33;34857;-87
2023/03/31 11:16:47;;;;;;;6.35;2.47;;;;;;;19.32;45.41;98314.03;4259698;33;33249;-88
2023/03/31 11:19:45;;;;;;;8.20;2.90;;;;;;;18.97;46.43;98302.13;4272495;33;34146;-87
2023/03/31 11:22:29;;;;;;;7.53;3.33;;;;;;;18.78;46.22;98301.91;4272561;33;34269;-87
2023/03/31 11:25:05;;;;;;;7.03;3.70;;;;;;;18.77;47.94;98289.69;4259777;33;34203;-87
2023/03/31 11:27:48;;;;;;;7.10;3.42;;;;;;;18.46;48.96;98285.44;4272569;33;34534;-91
2023/03/31 11:30:24;;;;;;;8.07;3.12;;;;;;;18.64;49.29;98268.22;4272309;33;34058;-88
2023/03/31 11:33:12;;;;;;;7.78;3.30;;;;;;;18.77;48.87;98260.81;4272452;33;35071;-87
2023/03/31 11:35:53;;;;;;;7.18;4.18;;;;;;;18.83;48.14;98250.09;4272568;33;35276;-87
2023/03/31 11:38:54;;;;;;;6.90;3.30;;;;;;;18.69;49.17;98239.19;4272405;33;33693;-88
2023/03/31 11:41:44;;;;;;;10.48;4.53;;;;;;;18.88;49.04;98229.78;4272253;33;34441;-87
2023/03/31 11:44:14;;;;;;;6.53;3.78;;;;;;;18.60;49.21;98222.00;4272279;33;33912;-89
2023/03/31 11:46:48;;;;;;;7.10;3.47;;;;;;;18.77;49.37;98218.78;4259444;33;34534;-89
2023/03/31 11:49:18;;;;;;;7.72;3.58;;;;;;;19.00;49.36;98217.09;4272063;33;33613;-88
2023/03/31 11:52:01;;;;;;;5.72;3.25;;;;;;;18.88;50.46;98221.88;4272383;33;33291;-87
2023/03/31 11:54:36;;;;;;;6.90;2.90;;;;;;;18.63;49.94;98200.00;4272138;33;34239;-87
2023/03/31 11:57:12;;;;;;;7.43;2.62;;;;;;;18.79;49.32;98201.22;4271197;33;34126;-88
2023/03/31 11:59:42;;;;;;;6.35;2.75;;;;;;;18.93;48.43;98193.69;4272066;33;33861;-88